Time;durP1;ratioP1;P1;durP2;ratioP2;P2;SDS_P1;SDS_P2;PMS_P1;PMS_P2;Temp;Humidity;BMP_temperature;BMP_pressure;BME280_temperature;BME280_humidity;BME280_pressure;Samples;Min_cycle;Max_cycle;Signal;HPM_P1;HPM_P2
2023/12/17 00:00:15;;;;;;;0.70;0.70;;;;;;;3.66;100.00;97603.41;4337873;32;20197;-58
2023/12/17 00:02:41;;;;;;;1.13;1.03;;;;;;;3.64;99.94;97597.53;4338683;32;20201;-59
2023/12/17 00:05:07;;;;;;;0.73;0.73;;;;;;;3.59;99.77;97606.00;4344713;32;20282;-59
2023/12/17 00:07:32;;;;;;;0.93;0.93;;;;;;;3.57;100.00;97594.88;4340217;32;20291;-60
2023/12/17 00:09:58;;;;;;;1.03;1.03;;;;;;;3.50;100.00;97593.22;4337737;32;20325;-59
2023/12/17 00:12:23;;;;;;;1.30;1.20;;;;;;;3.56;100.00;97590.63;4338744;32;20235;-59
2023/12/17 00:14:49;;;;;;;0.40;0.40;;;;;;;3.57;100.00;97599.31;4344792;32;20212;-59
2023/12/17 00:17:14;;;;;;;0.73;0.73;;;;;;;3.50;100.00;97606.34;4343446;32;20220;-58
2023/12/17 00:19:39;;;;;;;0.53;0.53;;;;;;;3.37;100.00;97605.22;4338990;32;20197;-59
2023/12/17 00:22:05;;;;;;;0.60;0.60;;;;;;;3.32;100.00;97610.25;4341898;32;20188;-59
2023/12/17 00:24:30;;;;;;;0.87;0.50;;;;;;;3.23;100.00;97611.38;4343687;32;20185;-59
2023/12/17 00:26:57;;;;;;;0.60;0.60;;;;;;;3.04;100.00;97598.94;4341378;32;20257;-58
2023/12/17 00:29:23;;;;;;;1.13;0.90;;;;;;;3.20;100.00;97603.09;4336343;32;20197;-59
2023/12/17 00:31:49;;;;;;;1.30;1.23;;;;;;;3.40;100.00;97610.09;4338165;32;20289;-59
2023/12/17 00:34:14;;;;;;;1.20;1.10;;;;;;;3.33;100.00;97611.84;4337674;32;20216;-58
2023/12/17 00:36:40;;;;;;;0.93;0.93;;;;;;;3.61;99.21;97611.03;4337629;32;20295;-59
2023/12/17 00:39:05;;;;;;;0.50;0.50;;;;;;;3.52;99.13;97614.84;4334346;32;20229;-59
2023/12/17 00:41:31;;;;;;;0.80;0.80;;;;;;;3.71;98.45;97606.28;4340832;32;20201;-60
2023/12/17 00:43:57;;;;;;;0.50;0.50;;;;;;;3.75;98.17;97610.13;4344596;32;20197;-58
2023/12/17 00:46:22;;;;;;;0.70;0.70;;;;;;;3.72;97.98;97605.28;4344500;32;20274;-59
2023/12/17 00:48:48;;;;;;;0.87;0.83;;;;;;;3.58;98.44;97606.19;4340403;32;20198;-59
2023/12/17 00:51:14;;;;;;;0.40;0.40;;;;;;;3.61;98.84;97605.78;4338544;32;20221;-59
2023/12/17 00:53:39;;;;;;;0.67;0.67;;;;;;;3.25;99.21;97603.34;4334089;32;20228;-59
2023/12/17 00:56:05;;;;;;;0.60;0.60;;;;;;;3.15;100.00;97595.78;4337835;32;20205;-59
2023/12/17 00:58:30;;;;;;;0.70;0.70;;;;;;;3.10;100.00;97598.19;4338877;32;20212;-59
2023/12/17 01:00:56;;;;;;;0.80;0.80;;;;;;;3.17;100.00;97599.03;4337962;32;20213;-59
2023/12/17 01:03:21;;;;;;;0.70;0.70;;;;;;;3.10;100.00;97606.03;4334893;32;20332;-59
2023/12/17 01:05:46;;;;;;;1.30;1.20;;;;;;;3.17;100.00;97604.28;4344871;32;20258;-59
2023/12/17 01:08:12;;;;;;;0.50;0.50;;;;;;;3.08;100.00;97602.81;4334903;32;20251;-59
2023/12/17 01:10:37;;;;;;;1.37;1.27;;;;;;;2.92;100.00;97603.03;4344146;32;20247;-58
2023/12/17 01:13:02;;;;;;;0.80;0.80;;;;;;;3.01;100.00;97602.75;4338524;32;20248;-59
2023/12/17 01:15:28;;;;;;;0.30;0.30;;;;;;;3.06;100.00;97617.91;4345371;32;20186;-59
2023/12/17 01:17:53;;;;;;;0.53;0.53;;;;;;;2.97;100.00;97611.97;4340581;32;20185;-60
2023/12/17 01:20:18;;;;;;;0.40;0.40;;;;;;;2.59;100.00;97629.75;4344830;32;20206;-61
2023/12/17 01:22:44;;;;;;;0.50;0.50;;;;;;;2.96;100.00;97641.00;4336326;32;20219;-59
2023/12/17 01:25:09;;;;;;;0.40;0.40;;;;;;;3.28;99.69;97640.50;4339830;32;20192;-59
2023/12/17 01:27:34;;;;;;;1.17;1.00;;;;;;;3.38;98.92;97638.34;4341380;32;20194;-59
2023/12/17 01:30:00;;;;;;;1.17;1.17;;;;;;;3.18;99.72;97639.97;4337939;32;20220;-59
2023/12/17 01:32:25;;;;;;;0.30;0.30;;;;;;;2.93;100.00;97660.53;4338021;32;20200;-58
2023/12/17 01:34:50;;;;;;;0.90;0.73;;;;;;;2.94;100.00;97667.38;4344251;32;20185;-59
2023/12/17 01:37:16;;;;;;;0.87;0.70;;;;;;;2.99;100.00;97669.47;4341440;32;20296;-59
2023/12/17 01:39:41;;;;;;;1.10;0.73;;;;;;;2.95;100.00;97660.34;4330141;32;20219;-59
2023/12/17 01:42:06;;;;;;;0.47;0.47;;;;;;;3.11;100.00;97654.88;4342393;32;20189;-59
2023/12/17 01:44:32;;;;;;;1.17;1.03;;;;;;;3.28;100.00;97650.97;4339741;32;20513;-59
2023/12/17 01:46:57;;;;;;;0.60;0.60;;;;;;;3.20;100.00;97650.28;4336443;32;20244;-58
2023/12/17 01:49:23;;;;;;;0.73;0.73;;;;;;;3.03;100.00;97642.69;4340799;32;20232;-59
2023/12/17 01:51:49;;;;;;;2.83;1.13;;;;;;;3.07;100.00;97651.00;4347635;32;20205;-60
2023/12/17 01:54:15;;;;;;;0.40;0.40;;;;;;;2.99;100.00;97651.09;4345615;32;20290;-59
2023/12/17 01:56:41;;;;;;;4.10;1.37;;;;;;;2.66;100.00;97648.97;4345492;32;20411;-60
2023/12/17 01:59:08;;;;;;;0.77;0.77;;;;;;;2.89;100.00;97661.09;4346397;32;20185;-59
2023/12/17 02:01:33;;;;;;;0.90;0.90;;;;;;;3.12;100.00;97666.94;4333418;32;20283;-59
2023/12/17 02:03:59;;;;;;;1.83;0.80;;;;;;;3.12;100.00;97659.91;4343951;32;20278;-59
2023/12/17 02:06:24;;;;;;;0.57;0.57;;;;;;;3.36;99.80;97666.56;4343418;32;20261;-59
2023/12/17 02:08:50;;;;;;;0.93;0.93;;;;;;;3.14;99.73;97669.37;4344973;32;20189;-59
2023/12/17 02:11:15;;;;;;;0.60;0.60;;;;;;;3.12;100.00;97674.81;4342317;32;20198;-59
2023/12/17 02:13:40;;;;;;;0.90;0.90;;;;;;;3.31;99.28;97676.84;4337525;32;20185;-59
2023/12/17 02:16:06;;;;;;;0.57;0.57;;;;;;;3.42;98.92;97676.31;4340994;32;20204;-58
2023/12/17 02:18:31;;;;;;;1.17;1.07;;;;;;;3.22;99.54;97677.94;4342242;32;20227;-58
2023/12/17 02:20:57;;;;;;;0.93;0.73;;;;;;;2.95;100.00;97676.06;4338107;32;20208;-58
2023/12/17 02:23:23;;;;;;;0.67;0.67;;;;;;;3.15;100.00;97674.44;4335567;32;20283;-59
2023/12/17 02:25:48;;;;;;;0.63;0.63;;;;;;;3.11;100.00;97678.47;4341612;32;20224;-59
2023/12/17 02:28:14;;;;;;;0.73;0.73;;;;;;;2.95;100.00;97676.06;4346698;32;20269;-59
2023/12/17 02:30:40;;;;;;;0.67;0.67;;;;;;;3.01;100.00;97677.94;4336594;32;20268;-58
2023/12/17 02:33:05;;;;;;;2.10;0.93;;;;;;;3.14;100.00;97680.69;4339534;32;20216;-59
2023/12/17 02:35:31;;;;;;;0.37;0.37;;;;;;;3.22;100.00;97671.91;4343450;32;20308;-59
2023/12/17 02:37:56;;;;;;;0.60;0.60;;;;;;;3.14;99.33;97680.69;4346279;32;20186;-59
2023/12/17 02:40:21;;;;;;;1.40;1.30;;;;;;;3.04;100.00;97678.41;4340970;32;20204;-59
2023/12/17 02:42:47;;;;;;;0.43;0.43;;;;;;;2.91;100.00;97680.09;4347854;32;20268;-59
2023/12/17 02:45:12;;;;;;;0.80;0.80;;;;;;;3.00;100.00;97665.84;4346770;32;20197;-59
2023/12/17 02:47:38;;;;;;;0.80;0.80;;;;;;;3.22;99.68;97662.22;4341705;32;20190;-58
2023/12/17 02:50:03;;;;;;;1.57;1.47;;;;;;;2.78;100.00;97656.34;4337787;32;20263;-59
2023/12/17 02:52:29;;;;;;;1.37;1.37;;;;;;;2.82;100.00;97661.03;4339999;32;20193;-58
2023/12/17 02:54:56;;;;;;;0.90;0.90;;;;;;;2.39;100.00;97666.19;4339147;32;20220;-59
2023/12/17 02:57:24;;;;;;;0.40;0.40;;;;;;;2.72;100.00;97650.84;4336781;32;20276;-59
2023/12/17 02:59:52;;;;;;;2.10;1.20;;;;;;;2.63;100.00;97651.16;4335003;32;20273;-59
2023/12/17 03:02:17;;;;;;;1.00;0.53;;;;;;;2.72;100.00;97650.84;4346827;32;20368;-59
2023/12/17 03:04:42;;;;;;;0.67;0.67;;;;;;;2.48;100.00;97660.87;4337849;32;20285;-59
2023/12/17 03:07:08;;;;;;;0.80;0.80;;;;;;;2.54;100.00;97641.78;4347108;32;20331;-59
2023/12/17 03:09:33;;;;;;;0.87;0.87;;;;;;;1.89;100.00;97643.38;4336998;32;20186;-58
2023/12/17 03:11:58;;;;;;;0.57;0.57;;;;;;;1.62;100.00;97646.66;4343216;32;20251;-59
2023/12/17 03:14:24;;;;;;;0.63;0.63;;;;;;;1.82;100.00;97637.28;4335757;32;20201;-59
2023/12/17 03:16:49;;;;;;;0.40;0.40;;;;;;;1.95;100.00;97640.06;4334426;32;20200;-59
2023/12/17 03:19:15;;;;;;;0.50;0.50;;;;;;;2.11;100.00;97630.37;4337985;32;20249;-59
2023/12/17 03:21:40;;;;;;;0.60;0.57;;;;;;;2.15;100.00;97623.78;4341547;32;20189;-59
2023/12/17 03:24:05;;;;;;;0.93;0.60;;;;;;;2.12;100.00;97626.78;4342735;32;20197;-58
2023/12/17 03:26:32;;;;;;;0.53;0.53;;;;;;;2.03;100.00;97623.47;4346566;32;20231;-59
2023/12/17 03:28:57;;;;;;;0.50;0.50;;;;;;;2.20;100.00;97617.03;4346005;32;20265;-59
2023/12/17 03:31:22;;;;;;;0.23;0.23;;;;;;;1.83;100.00;97619.78;4346866;32;20297;-59
2023/12/17 03:33:48;;;;;;;0.43;0.43;;;;;;;1.81;100.00;97617.34;4345227;32;20185;-58
2023/12/17 03:36:14;;;;;;;0.53;0.53;;;;;;;1.41;100.00;97625.59;4338827;32;20252;-58
2023/12/17 03:38:42;;;;;;;0.47;0.47;;;;;;;1.77;100.00;97623.09;4338372;32;20243;-59
2023/12/17 03:41:28;;;;;;;1.50;1.27;;;;;;;2.08;100.00;97627.12;4344957;32;20324;-58
2023/12/17 03:43:55;;;;;;;0.30;0.30;;;;;;;2.05;100.00;97635.38;4335876;32;20325;-59
2023/12/17 03:46:22;;;;;;;0.50;0.50;;;;;;;2.08;100.00;97636.78;4345223;32;20289;-59
2023/12/17 03:48:48;;;;;;;0.30;0.30;;;;;;;1.90;100.00;97631.94;4342399;32;20294;-59
2023/12/17 03:51:14;;;;;;;0.37;0.37;;;;;;;2.04;100.00;97631.13;4340711;32;20336;-59
2023/12/17 03:53:39;;;;;;;0.50;0.50;;;;;;;2.30;100.00;97617.53;4344931;32;20285;-59
2023/12/17 03:56:09;;;;;;;0.87;0.87;;;;;;;1.84;100.00;97624.00;4333716;32;20209;-59
2023/12/17 03:58:34;;;;;;;1.03;1.03;;;;;;;2.13;100.00;97628.41;4334530;32;20240;-59
2023/12/17 04:01:01;;;;;;;0.67;0.57;;;;;;;2.35;100.00;97633.50;4335578;32;20290;-58
2023/12/17 04:03:27;;;;;;;0.67;0.67;;;;;;;2.55;100.00;97632.91;4341877;32;20275;-59
2023/12/17 04:05:52;;;;;;;0.50;0.50;;;;;;;2.45;100.00;97632.41;4344845;32;20325;-59
2023/12/17 04:08:17;;;;;;;0.20;0.20;;;;;;;2.53;100.00;97637.53;4343066;32;20198;-59
2023/12/17 04:10:43;;;;;;;0.40;0.40;;;;;;;2.22;100.00;97632.53;4337524;32;20251;-59
2023/12/17 04:13:08;;;;;;;0.60;0.60;;;;;;;2.37;100.00;97626.28;4336534;32;20292;-59
2023/12/17 04:15:33;;;;;;;0.53;0.50;;;;;;;2.50;100.00;97617.75;4333801;32;20198;-58
2023/12/17 04:17:59;;;;;;;0.43;0.43;;;;;;;2.54;100.00;97608.53;4336188;32;20193;-58
2023/12/17 04:20:24;;;;;;;0.80;0.60;;;;;;;2.59;100.00;97608.78;4339787;32;20212;-59
2023/12/17 04:22:49;;;;;;;0.40;0.40;;;;;;;2.52;100.00;97602.66;4336180;32;20202;-59
2023/12/17 04:25:15;;;;;;;3.50;0.60;;;;;;;2.62;100.00;97608.41;4344742;32;20227;-59
2023/12/17 04:27:40;;;;;;;0.43;0.43;;;;;;;2.45;99.89;97603.59;4338348;32;20193;-58
2023/12/17 04:30:06;;;;;;;0.57;0.53;;;;;;;2.37;100.00;97588.81;4343875;32;20197;-58
2023/12/17 04:32:32;;;;;;;0.43;0.37;;;;;;;2.43;100.00;97580.22;4344281;32;20194;-58
2023/12/17 04:34:57;;;;;;;0.30;0.30;;;;;;;2.13;100.00;97579.47;4344232;32;20374;-59
2023/12/17 04:37:22;;;;;;;0.47;0.47;;;;;;;1.99;100.00;97580.31;4345569;32;20267;-59
2023/12/17 04:39:48;;;;;;;0.20;0.20;;;;;;;1.94;100.00;97567.78;4341526;32;20209;-59
2023/12/17 04:42:13;;;;;;;0.10;0.10;;;;;;;2.17;100.00;97558.97;4339483;32;20183;-59
2023/12/17 04:44:39;;;;;;;0.50;0.50;;;;;;;2.33;100.00;97551.69;4345842;32;20338;-59
2023/12/17 04:47:04;;;;;;;0.50;0.50;;;;;;;2.36;100.00;97547.91;4345381;32;20236;-59
2023/12/17 04:49:30;;;;;;;0.40;0.40;;;;;;;2.51;99.92;97532.13;4338066;32;20243;-58
2023/12/17 04:51:55;;;;;;;0.40;0.40;;;;;;;2.56;99.18;97527.94;4339429;32;20189;-59
2023/12/17 04:54:20;;;;;;;0.87;0.57;;;;;;;2.34;99.27;97532.37;4336988;32;20268;-59
2023/12/17 04:56:46;;;;;;;0.47;0.47;;;;;;;2.27;99.76;97539.37;4345402;32;20216;-60
2023/12/17 04:59:11;;;;;;;0.40;0.40;;;;;;;2.59;98.62;97534.62;4339196;32;20219;-58
2023/12/17 05:01:36;;;;;;;0.50;0.50;;;;;;;2.69;97.42;97529.91;4343824;32;20227;-59
2023/12/17 05:04:02;;;;;;;0.60;0.60;;;;;;;2.28;99.19;97545.41;4339496;32;20190;-59
2023/12/17 05:06:27;;;;;;;0.60;0.60;;;;;;;2.46;98.94;97545.00;4342556;32;20211;-59
2023/12/17 05:08:54;;;;;;;1.00;0.67;;;;;;;2.53;97.90;97549.28;4330331;32;20277;-59
2023/12/17 05:11:19;;;;;;;0.50;0.50;;;;;;;2.41;98.36;97553.41;4340553;32;20197;-60
2023/12/17 05:13:44;;;;;;;0.50;0.50;;;;;;;2.58;97.86;97549.53;4334698;32;20357;-58
2023/12/17 05:16:10;;;;;;;0.20;0.20;;;;;;;2.53;97.83;97538.78;4334051;32;20194;-59
2023/12/17 05:18:35;;;;;;;0.20;0.20;;;;;;;2.53;98.17;97541.41;4333978;32;20197;-58
2023/12/17 05:21:00;;;;;;;0.60;0.60;;;;;;;2.29;98.68;97541.78;4337681;32;20255;-59
2023/12/17 05:23:26;;;;;;;1.03;1.03;;;;;;;2.53;98.07;97530.13;4334686;32;20201;-59
2023/12/17 05:25:51;;;;;;;0.20;0.20;;;;;;;2.44;98.59;97536.50;4340306;32;20254;-59
2023/12/17 05:28:16;;;;;;;0.20;0.20;;;;;;;2.76;97.46;97536.78;4342393;32;20217;-58
2023/12/17 05:30:42;;;;;;;0.87;0.67;;;;;;;2.82;96.43;97534.44;4348687;32;20262;-58
2023/12/17 05:33:07;;;;;;;27.70;1.63;;;;;;;2.79;95.63;97530.38;4336692;32;20197;-59
2023/12/17 05:35:32;;;;;;;0.30;0.30;;;;;;;2.81;95.58;97543.28;4339669;32;20236;-59
2023/12/17 05:37:58;;;;;;;0.40;0.40;;;;;;;2.85;95.03;97552.41;4331646;32;20280;-59
2023/12/17 05:40:24;;;;;;;0.53;0.53;;;;;;;2.67;96.24;97561.53;4334703;32;20197;-59
2023/12/17 05:42:49;;;;;;;0.40;0.40;;;;;;;2.82;96.27;97568.50;4337206;32;20225;-61
2023/12/17 05:45:14;;;;;;;0.40;0.40;;;;;;;2.70;96.46;97563.75;4347646;32;20193;-59
2023/12/17 05:47:40;;;;;;;0.20;0.20;;;;;;;2.71;97.20;97565.38;4344956;32;20193;-59
2023/12/17 05:50:07;;;;;;;0.10;0.10;;;;;;;2.79;96.99;97556.56;4338846;32;20189;-59
2023/12/17 05:52:33;;;;;;;0.20;0.20;;;;;;;2.78;96.37;97548.91;4337660;32;20203;-59
2023/12/17 05:54:59;;;;;;;0.17;0.17;;;;;;;2.68;97.67;97547.44;4338899;32;20318;-58
2023/12/17 05:57:24;;;;;;;0.67;0.67;;;;;;;2.56;97.81;97538.44;4336237;32;20197;-60
2023/12/17 05:59:49;;;;;;;5.30;1.07;;;;;;;2.29;99.04;97539.16;4344830;32;20185;-60
2023/12/17 06:02:15;;;;;;;0.10;0.10;;;;;;;2.55;98.48;97530.75;4346612;32;20201;-59
2023/12/17 06:04:40;;;;;;;0.73;0.63;;;;;;;2.25;99.03;97541.34;4337511;32;20200;-59
2023/12/17 06:07:06;;;;;;;0.20;0.20;;;;;;;2.37;99.46;97536.44;4345402;32;20260;-59
2023/12/17 06:09:31;;;;;;;0.10;0.10;;;;;;;2.42;98.84;97544.53;4339309;32;20251;-59
2023/12/17 06:11:57;;;;;;;0.50;0.50;;;;;;;2.55;98.29;97534.19;4336178;32;20194;-59
2023/12/17 06:14:23;;;;;;;0.40;0.40;;;;;;;2.72;97.26;97538.16;4343797;32;20186;-59
2023/12/17 06:16:49;;;;;;;0.10;0.10;;;;;;;2.62;97.30;97537.69;4342820;32;20207;-59
2023/12/17 06:19:14;;;;;;;0.43;0.43;;;;;;;2.46;97.89;97540.56;4340577;32;20297;-59
2023/12/17 06:21:40;;;;;;;0.20;0.20;;;;;;;2.40;99.14;97536.88;4338502;32;20233;-59
2023/12/17 06:24:05;;;;;;;0.27;0.27;;;;;;;2.25;99.06;97530.87;4343436;32;20197;-59
2023/12/17 06:26:31;;;;;;;0.30;0.30;;;;;;;2.00;100.00;97540.88;4342236;32;20208;-58
2023/12/17 06:28:57;;;;;;;0.20;0.20;;;;;;;2.41;99.14;97532.44;4342311;32;20220;-58
2023/12/17 06:31:23;;;;;;;0.93;0.93;;;;;;;2.65;97.61;97536.50;4339096;32;20189;-58
2023/12/17 06:33:49;;;;;;;0.37;0.37;;;;;;;2.72;96.53;97529.50;4339676;32;20286;-59
2023/12/17 06:36:15;;;;;;;0.47;0.47;;;;;;;2.57;97.42;97537.44;4343743;32;20317;-59
2023/12/17 06:38:40;;;;;;;0.30;0.30;;;;;;;2.32;98.02;97546.66;4338990;32;20220;-59
2023/12/17 06:41:08;;;;;;;0.43;0.43;;;;;;;2.50;97.57;97556.69;4339425;32;20298;-59
2023/12/17 06:43:33;;;;;;;0.60;0.60;;;;;;;2.50;97.20;97551.44;4339250;32;20209;-59
2023/12/17 06:45:58;;;;;;;0.40;0.40;;;;;;;2.49;97.51;97555.91;4343317;32;20285;-59
2023/12/17 06:48:24;;;;;;;0.40;0.40;;;;;;;2.52;97.77;97555.50;4341590;32;20259;-59
2023/12/17 06:50:49;;;;;;;0.30;0.30;;;;;;;2.54;97.47;97558.75;4337123;32;20194;-61
2023/12/17 06:53:16;;;;;;;1.00;1.00;;;;;;;2.53;98.02;97557.13;4341386;32;20244;-59
2023/12/17 06:55:45;;;;;;;0.47;0.47;;;;;;;2.54;97.71;97566.62;4339074;32;20245;-60
2023/12/17 06:58:11;;;;;;;0.40;0.40;;;;;;;2.55;97.78;97564.81;4337182;32;20282;-59
2023/12/17 07:00:37;;;;;;;0.30;0.30;;;;;;;2.64;97.32;97556.66;4338063;32;20294;-59
2023/12/17 07:03:02;;;;;;;0.40;0.40;;;;;;;2.21;98.62;97552.38;4339319;32;20305;-59
2023/12/17 07:05:28;;;;;;;0.30;0.30;;;;;;;2.22;99.09;97559.25;4344524;32;20197;-58
2023/12/17 07:07:53;;;;;;;0.73;0.73;;;;;;;2.56;98.19;97551.53;4343208;32;20279;-59
2023/12/17 07:10:18;;;;;;;0.77;0.57;;;;;;;2.56;97.54;97554.16;4341155;32;20204;-59
2023/12/17 07:12:44;;;;;;;0.10;0.10;;;;;;;2.42;98.11;97549.78;4347108;32;20197;-60
2023/12/17 07:15:10;;;;;;;0.50;0.50;;;;;;;2.51;98.21;97559.12;4343728;32;20269;-59
2023/12/17 07:17:35;;;;;;;0.77;0.73;;;;;;;2.34;99.21;97555.13;4337823;32;20216;-60
2023/12/17 07:20:00;;;;;;;0.60;0.60;;;;;;;2.39;99.04;97558.00;4338616;32;20297;-59
2023/12/17 07:22:26;;;;;;;0.50;0.50;;;;;;;2.57;97.90;97566.25;4340230;32;20224;-59
2023/12/17 07:24:51;;;;;;;0.63;0.47;;;;;;;2.67;97.44;97568.56;4333556;32;20193;-59
2023/12/17 07:27:17;;;;;;;0.30;0.30;;;;;;;2.76;97.42;97570.84;4340671;32;20197;-59
2023/12/17 07:29:42;;;;;;;0.40;0.40;;;;;;;2.69;97.82;97561.34;4342584;32;20216;-59
2023/12/17 07:32:08;;;;;;;0.50;0.50;;;;;;;2.79;97.26;97561.81;4338794;32;20190;-59
2023/12/17 07:34:33;;;;;;;0.57;0.50;;;;;;;2.75;96.39;97560.56;4341709;32;20237;-59
2023/12/17 07:37:00;;;;;;;1.03;0.80;;;;;;;2.56;97.37;97554.16;4339987;32;20240;-59
2023/12/17 07:39:25;;;;;;;0.30;0.30;;;;;;;2.73;96.96;97557.31;4341894;32;20214;-60
2023/12/17 07:41:51;;;;;;;0.50;0.50;;;;;;;2.54;97.80;97558.75;4340122;32;20319;-60
2023/12/17 07:44:18;;;;;;;0.43;0.43;;;;;;;2.41;98.34;97562.06;4345538;32;20217;-59
2023/12/17 07:46:43;;;;;;;0.13;0.13;;;;;;;2.39;98.47;97563.25;4340890;32;20194;-59
2023/12/17 07:49:09;;;;;;;0.50;0.50;;;;;;;2.37;99.16;97557.38;4339728;32;20390;-59
2023/12/17 07:51:34;;;;;;;0.20;0.20;;;;;;;2.28;99.49;97567.19;4336170;32;20237;-59
2023/12/17 07:54:00;;;;;;;2.07;0.77;;;;;;;2.35;99.62;97564.59;4338412;32;20253;-60
2023/12/17 07:56:26;;;;;;;2.10;1.00;;;;;;;2.46;99.98;97564.13;4335441;32;20222;-60
2023/12/17 07:58:52;;;;;;;0.50;0.50;;;;;;;2.65;98.81;97555.66;4341538;32;20243;-60
2023/12/17 08:01:27;;;;;;;0.50;0.50;;;;;;;2.84;98.04;97563.88;4344350;32;20286;-59
2023/12/17 08:03:52;;;;;;;0.33;0.33;;;;;;;2.91;97.02;97565.53;4337958;32;20197;-60
2023/12/17 08:06:17;;;;;;;1.20;0.87;;;;;;;2.64;97.94;97575.00;4346067;32;20316;-59
2023/12/17 08:08:43;;;;;;;0.40;0.40;;;;;;;2.50;98.89;97577.66;4342239;32;20189;-59
2023/12/17 08:11:12;;;;;;;0.27;0.27;;;;;;;2.65;98.49;97574.00;4338077;32;20206;-59
2023/12/17 08:13:37;;;;;;;0.47;0.47;;;;;;;2.75;97.98;97571.84;4342311;32;20263;-59
2023/12/17 08:16:02;;;;;;;1.90;0.50;;;;;;;2.66;98.13;97566.94;4339945;32;20294;-59
2023/12/17 08:18:28;;;;;;;1.70;1.00;;;;;;;2.87;97.37;97572.19;4344406;32;20221;-59
2023/12/17 08:20:54;;;;;;;0.43;0.43;;;;;;;3.01;96.82;97573.09;4339566;32;20185;-59
2023/12/17 08:23:19;;;;;;;0.73;0.70;;;;;;;2.83;97.40;97577.97;4347034;32;20194;-59
2023/12/17 08:25:44;;;;;;;3.63;1.07;;;;;;;2.84;97.67;97571.75;4346844;32;20247;-59
2023/12/17 08:28:10;;;;;;;0.80;0.80;;;;;;;2.87;97.79;97568.75;4344723;32;20177;-59
2023/12/17 08:30:38;;;;;;;2.03;1.03;;;;;;;2.95;96.86;97572.03;4336355;32;20285;-59
2023/12/17 08:33:04;;;;;;;0.40;0.40;;;;;;;3.13;96.50;97566.31;4343492;32;20220;-59
2023/12/17 08:35:31;;;;;;;0.57;0.57;;;;;;;3.25;95.30;97571.88;4341192;32;20289;-59
2023/12/17 08:38:03;;;;;;;0.30;0.30;;;;;;;3.15;95.70;97572.19;4341173;32;20199;-59
2023/12/17 08:40:28;;;;;;;0.20;0.20;;;;;;;3.35;95.14;97578.38;4340960;32;20293;-59
2023/12/17 08:42:54;;;;;;;0.43;0.43;;;;;;;3.40;94.41;97578.63;4341311;32;20309;-59
2023/12/17 08:48:41;;;;;;;0.73;0.57;;;;;;;2.96;96.10;97583.31;4337692;32;20244;-59
2023/12/17 08:51:06;;;;;;;0.80;0.80;;;;;;;3.04;97.19;97591.06;4344762;32;20289;-59
2023/12/17 08:53:31;;;;;;;1.70;1.30;;;;;;;2.89;97.98;97579.84;4343009;32;20200;-60
2023/12/17 08:55:57;;;;;;;2.07;0.40;;;;;;;2.76;98.58;97572.66;4343258;32;20243;-59
2023/12/17 08:58:22;;;;;;;0.40;0.40;;;;;;;2.86;98.18;97573.19;4338257;32;20205;-59
2023/12/17 09:00:47;;;;;;;0.40;0.40;;;;;;;3.01;98.10;97571.28;4347019;32;20185;-59
2023/12/17 09:03:13;;;;;;;1.10;0.80;;;;;;;3.20;96.20;97569.81;4341407;32;20189;-59
2023/12/17 09:05:38;;;;;;;1.03;1.03;;;;;;;3.42;95.74;97574.00;4340749;32;20212;-59
2023/12/17 09:08:04;;;;;;;0.70;0.70;;;;;;;3.26;96.11;97568.25;4343927;32;20229;-59
2023/12/17 09:10:29;;;;;;;17.53;1.47;;;;;;;3.42;95.76;97567.94;4340142;32;20208;-59
2023/12/17 09:12:54;;;;;;;1.60;1.00;;;;;;;3.62;95.59;97565.44;4341875;32;20243;-60
2023/12/17 09:15:21;;;;;;;0.73;0.73;;;;;;;3.91;94.78;97567.00;4341058;32;20201;-60
2023/12/17 09:17:47;;;;;;;47.97;19.03;;;;;;;3.93;92.81;97571.06;4344838;32;20334;-60
2023/12/17 09:20:13;;;;;;;68.83;35.10;;;;;;;4.96;100.00;97555.94;4339891;32;20285;-60
2023/12/17 09:22:39;;;;;;;56.73;27.30;;;;;;;5.33;100.00;97543.97;4338632;32;20185;-60
2023/12/17 09:25:05;;;;;;;27.40;14.40;;;;;;;5.52;100.00;97543.94;4342827;32;20336;-59
2023/12/17 09:27:30;;;;;;;21.53;14.67;;;;;;;5.35;99.00;97544.59;4336727;32;20248;-59
2023/12/17 09:29:56;;;;;;;36.00;19.07;;;;;;;6.15;100.00;97549.44;4344252;32;20261;-59
2023/12/17 09:32:22;;;;;;;20.67;15.33;;;;;;;6.53;100.00;97543.34;4343953;32;20193;-60
2023/12/17 09:34:47;;;;;;;11.23;6.23;;;;;;;6.89;100.00;97543.50;4342980;32;20282;-60
2023/12/17 09:37:13;;;;;;;1.27;1.27;;;;;;;6.48;93.37;97557.16;4336325;32;20243;-60
2023/12/17 09:39:38;;;;;;;0.40;0.40;;;;;;;6.16;86.93;97553.69;4341556;32;20204;-60
2023/12/17 09:42:04;;;;;;;0.63;0.57;;;;;;;6.06;84.85;97548.03;4344367;32;20233;-59
2023/12/17 09:44:29;;;;;;;0.50;0.50;;;;;;;5.63;86.15;97552.19;4338742;32;20239;-60
2023/12/17 09:46:55;;;;;;;0.77;0.70;;;;;;;5.30;87.72;97545.19;4335950;32;20217;-61
2023/12/17 09:49:20;;;;;;;0.60;0.60;;;;;;;5.36;87.79;97544.38;4336777;32;20220;-60
2023/12/17 09:51:49;;;;;;;0.70;0.70;;;;;;;5.05;89.26;97544.19;4339509;32;20193;-60
2023/12/17 09:54:15;;;;;;;0.67;0.67;;;;;;;5.26;89.11;97556.31;4342468;32;20220;-60
2023/12/17 09:56:46;;;;;;;0.27;0.27;;;;;;;5.25;88.53;97559.97;4337325;32;20320;-59
2023/12/17 09:59:11;;;;;;;0.40;0.40;;;;;;;5.07;89.61;97564.03;4339424;32;20263;-59
2023/12/17 10:01:36;;;;;;;0.63;0.63;;;;;;;5.07;89.40;97558.75;4337916;32;20317;-60
2023/12/17 10:04:02;;;;;;;0.73;0.73;;;;;;;5.23;90.17;97557.53;4331564;32;20189;-60
2023/12/17 10:06:27;;;;;;;0.30;0.30;;;;;;;5.12;91.78;97550.25;4334571;32;20198;-60
2023/12/17 10:08:56;;;;;;;0.60;0.60;;;;;;;5.24;91.45;97553.09;4341807;32;20194;-60
2023/12/17 10:11:23;;;;;;;0.43;0.43;;;;;;;5.03;91.55;97560.16;4339053;32;20197;-60
2023/12/17 10:13:49;;;;;;;0.97;0.97;;;;;;;5.16;91.93;97551.47;4345849;32;20285;-60
2023/12/17 10:16:14;;;;;;;1.50;0.87;;;;;;;5.21;91.25;97554.28;4340663;32;20298;-60
2023/12/17 10:18:39;;;;;;;0.53;0.53;;;;;;;5.29;89.77;97555.91;4343997;32;20381;-60
2023/12/17 10:21:07;;;;;;;0.77;0.77;;;;;;;5.33;89.43;97551.88;4340254;32;20206;-60
2023/12/17 10:24:02;;;;;;;0.63;0.63;;;;;;;5.59;89.27;97540.50;4338952;32;20202;-60
2023/12/17 10:26:55;;;;;;;0.63;0.63;;;;;;;5.74;88.07;97536.59;4337361;32;20290;-60
2023/12/17 10:29:21;;;;;;;0.60;0.60;;;;;;;5.95;87.79;97527.62;4342760;32;20297;-60
2023/12/17 10:31:47;;;;;;;0.30;0.30;;;;;;;5.79;87.43;97523.63;4345174;32;20333;-60
2023/12/17 10:34:19;;;;;;;0.57;0.57;;;;;;;6.09;88.06;97518.66;4336504;32;20190;-60
2023/12/17 10:36:47;;;;;;;0.90;0.90;;;;;;;6.03;86.22;97519.47;4342349;32;20239;-61
2023/12/17 10:39:14;;;;;;;0.57;0.57;;;;;;;6.07;86.30;97518.03;4341386;32;20285;-60
2023/12/17 10:41:41;;;;;;;0.63;0.63;;;;;;;6.25;86.69;97514.69;4338335;32;21523;-59
2023/12/17 10:44:10;;;;;;;0.47;0.47;;;;;;;6.38;85.94;97519.09;4338383;32;20293;-59
2023/12/17 10:46:36;;;;;;;1.13;1.13;;;;;;;6.22;86.69;97516.97;4336437;32;20326;-58
2023/12/17 10:49:05;;;;;;;3.37;1.03;;;;;;;6.48;83.43;97514.16;4339772;32;20290;-59
2023/12/17 10:51:34;;;;;;;0.50;0.50;;;;;;;6.46;81.90;97508.28;4345185;32;20299;-58
2023/12/17 10:54:00;;;;;;;0.20;0.20;;;;;;;6.62;79.42;97515.72;4338897;32;20305;-59
2023/12/17 10:56:28;;;;;;;0.40;0.40;;;;;;;6.67;80.02;97507.94;4345784;32;20286;-59
2023/12/17 10:58:55;;;;;;;0.83;0.83;;;;;;;6.79;80.11;97508.09;4334098;32;20368;-59
2023/12/17 11:01:22;;;;;;;0.50;0.50;;;;;;;6.90;80.93;97508.19;4342448;32;20294;-60
2023/12/17 11:03:48;;;;;;;0.57;0.57;;;;;;;6.68;80.61;97498.22;4338794;32;20368;-59
2023/12/17 11:06:14;;;;;;;0.70;0.70;;;;;;;7.08;78.67;97490.78;4346030;32;20302;-60
2023/12/17 11:08:40;;;;;;;0.40;0.40;;;;;;;7.19;79.75;97498.00;4343270;32;20373;-59
2023/12/17 11:11:06;;;;;;;0.60;0.60;;;;;;;7.16;76.12;97493.16;4341654;32;20352;-59
2023/12/17 11:13:31;;;;;;;0.47;0.47;;;;;;;7.40;77.23;97494.13;4342230;32;20224;-59
2023/12/17 11:15:57;;;;;;;0.33;0.33;;;;;;;7.56;77.55;97485.63;4347374;32;20219;-59
2023/12/17 11:18:24;;;;;;;1.17;1.07;;;;;;;7.53;75.59;97484.22;4345305;32;20205;-59
2023/12/17 11:20:52;;;;;;;0.60;0.60;;;;;;;7.49;77.93;97484.88;4339569;32;20205;-59
2023/12/17 11:23:18;;;;;;;4.90;1.27;;;;;;;7.58;77.11;97486.22;4343875;32;20282;-59
2023/12/17 11:25:46;;;;;;;1.57;1.47;;;;;;;7.45;78.93;97487.19;4334767;32;20341;-59
2023/12/17 11:28:22;;;;;;;0.80;0.80;;;;;;;7.65;78.19;97476.38;4333329;32;20198;-59
2023/12/17 11:30:48;;;;;;;0.70;0.70;;;;;;;7.56;77.03;97465.31;4340861;32;20333;-59
2023/12/17 11:33:13;;;;;;;0.50;0.50;;;;;;;7.41;79.36;97464.88;4337522;32;20340;-59
2023/12/17 11:35:39;;;;;;;1.10;0.47;;;;;;;7.58;75.65;97452.69;4344457;32;20201;-59